createdAt,value
2018-09-18T00:00:41.325Z,99.90
2018-09-18T00:03:10.288Z,99.90
2018-09-18T00:05:38.713Z,99.90
2018-09-18T00:08:07.426Z,99.90
2018-09-18T00:10:36.527Z,99.90
2018-09-18T00:13:05.133Z,99.90
2018-09-18T00:15:33.510Z,99.90
2018-09-18T00:18:01.921Z,99.90
2018-09-18T00:20:30.326Z,99.90
2018-09-18T00:22:59.309Z,99.90
2018-09-18T00:25:27.928Z,99.90
2018-09-18T00:27:56.735Z,99.90
2018-09-18T00:30:25.504Z,99.90
2018-09-18T00:32:53.964Z,99.90
2018-09-18T00:35:22.563Z,99.90
2018-09-18T00:37:50.970Z,99.90
2018-09-18T00:40:20.009Z,99.90
2018-09-18T00:42:48.667Z,99.90
2018-09-18T00:45:17.216Z,99.90
2018-09-18T00:47:45.604Z,99.90
2018-09-18T00:50:14.239Z,99.90
2018-09-18T00:52:42.865Z,99.90
2018-09-18T00:55:12.023Z,99.90
2018-09-18T00:57:40.652Z,99.90
2018-09-18T01:00:09.097Z,99.90
2018-09-18T01:02:37.879Z,99.90
2018-09-18T01:05:06.504Z,99.90
2018-09-18T01:07:34.954Z,99.90
2018-09-18T01:10:03.682Z,99.90
2018-09-18T01:12:32.400Z,99.90
2018-09-18T01:15:00.927Z,99.90
2018-09-18T01:17:36.130Z,99.90
2018-09-18T01:20:04.700Z,99.90
2018-09-18T01:22:33.286Z,99.90
2018-09-18T01:25:01.953Z,99.90
2018-09-18T01:27:30.338Z,99.90
2018-09-18T01:29:58.736Z,99.90
2018-09-18T01:32:27.702Z,99.90
2018-09-18T01:34:56.129Z,99.90
2018-09-18T01:37:24.665Z,99.90
2018-09-18T01:39:53.329Z,99.90
2018-09-18T01:42:21.815Z,99.90
2018-09-18T01:44:50.879Z,99.90
2018-09-18T01:47:19.462Z,99.90
2018-09-18T01:49:47.883Z,99.90
2018-09-18T01:52:16.569Z,99.90
2018-09-18T01:54:45.167Z,99.90
2018-09-18T01:57:13.657Z,99.90
2018-09-18T01:59:42.274Z,99.90
2018-09-18T02:02:12.418Z,99.90
2018-09-18T02:04:40.913Z,99.90
2018-09-18T02:07:09.554Z,99.90
2018-09-18T02:09:38.634Z,99.90
2018-09-18T02:12:07.296Z,99.90
2018-09-18T02:14:35.705Z,99.90
2018-09-18T02:17:04.630Z,99.90
2018-09-18T02:19:33.025Z,99.90
2018-09-18T02:22:01.545Z,99.90
2018-09-18T02:24:30.381Z,99.90
2018-09-18T02:26:58.815Z,99.90
2018-09-18T02:29:27.459Z,99.90
2018-09-18T02:31:55.835Z,99.90
2018-09-18T02:34:24.608Z,99.90
2018-09-18T02:36:53.224Z,99.90
2018-09-18T02:39:21.607Z,99.90
2018-09-18T02:41:50.950Z,99.90
2018-09-18T02:44:19.368Z,99.90
2018-09-18T02:46:47.930Z,99.90
2018-09-18T02:49:16.347Z,99.90
2018-09-18T02:51:44.785Z,99.90
2018-09-18T02:54:13.359Z,99.90
2018-09-18T02:56:41.796Z,99.90
2018-09-18T02:59:10.354Z,99.90
2018-09-18T03:01:38.757Z,99.90
2018-09-18T03:04:07.143Z,99.90
2018-09-18T03:06:35.544Z,99.90
2018-09-18T03:09:05.829Z,99.90
2018-09-18T03:11:34.303Z,99.90
2018-09-18T03:14:03.245Z,99.90
2018-09-18T03:16:31.761Z,99.90
2018-09-18T03:19:00.383Z,99.90
2018-09-18T03:21:29.442Z,99.90
2018-09-18T03:23:58.345Z,99.90
2018-09-18T03:26:26.719Z,99.90
2018-09-18T03:28:56.063Z,99.90
2018-09-18T03:31:24.958Z,99.90
2018-09-18T03:33:53.499Z,99.90
2018-09-18T03:36:22.064Z,99.90
2018-09-18T03:38:51.433Z,99.90
2018-09-18T03:41:19.812Z,99.90
2018-09-18T03:43:48.932Z,99.90
2018-09-18T03:46:17.410Z,99.90
2018-09-18T03:48:46.127Z,99.90
2018-09-18T03:51:14.598Z,99.90
2018-09-18T03:53:43.058Z,99.90
2018-09-18T03:56:11.443Z,99.90
2018-09-18T03:58:40.311Z,99.90
2018-09-18T04:01:09.072Z,99.90
2018-09-18T04:03:37.719Z,99.90
2018-09-18T04:06:06.481Z,99.90
2018-09-18T04:08:34.917Z,99.90
2018-09-18T04:11:03.490Z,99.90
2018-09-18T04:13:31.924Z,99.90
2018-09-18T04:16:00.357Z,99.90
2018-09-18T04:18:28.971Z,99.90
2018-09-18T04:20:57.377Z,99.90
2018-09-18T04:23:25.907Z,99.90
2018-09-18T04:25:54.377Z,99.90
2018-09-18T04:28:23.027Z,99.90
2018-09-18T04:30:51.418Z,99.90
2018-09-18T04:33:20.320Z,99.90
2018-09-18T04:35:49.125Z,99.90
2018-09-18T04:38:17.559Z,99.90
2018-09-18T04:40:46.270Z,99.90
2018-09-18T04:43:14.716Z,99.90
2018-09-18T04:45:44.001Z,99.90
2018-09-18T04:48:12.606Z,99.90
2018-09-18T04:50:42.437Z,99.90
2018-09-18T04:53:11.179Z,99.90
2018-09-18T04:55:39.669Z,99.90
2018-09-18T04:58:08.561Z,99.90
2018-09-18T05:00:37.249Z,99.90
2018-09-18T05:03:05.737Z,99.90
2018-09-18T05:05:34.385Z,99.90
2018-09-18T05:08:03.023Z,99.90
2018-09-18T05:10:31.932Z,99.90
2018-09-18T05:13:00.892Z,99.90
2018-09-18T05:15:29.453Z,99.90
2018-09-18T05:17:58.128Z,99.90
2018-09-18T05:20:26.562Z,99.90
2018-09-18T05:22:55.076Z,99.90
2018-09-18T05:25:23.799Z,99.90
2018-09-18T05:27:53.260Z,99.90
2018-09-18T05:30:21.653Z,99.90
2018-09-18T05:32:50.223Z,99.90
2018-09-18T05:35:19.064Z,99.90
2018-09-18T05:37:47.677Z,99.90
2018-09-18T05:40:16.108Z,99.90
2018-09-18T05:42:44.539Z,99.90
2018-09-18T05:45:13.784Z,99.90
2018-09-18T05:47:42.402Z,99.90
2018-09-18T05:50:11.004Z,99.90
2018-09-18T05:52:40.048Z,99.90
2018-09-18T05:55:08.458Z,99.90
2018-09-18T05:57:37.082Z,99.90
2018-09-18T06:02:41.231Z,99.90
2018-09-18T06:05:10.093Z,99.90
2018-09-18T06:07:39.106Z,99.90
2018-09-18T06:10:07.683Z,99.90
2018-09-18T06:12:36.591Z,99.90
2018-09-18T06:15:05.387Z,99.90
2018-09-18T06:17:34.059Z,99.90
2018-09-18T06:20:05.748Z,99.90
2018-09-18T06:22:34.188Z,99.90
2018-09-18T06:25:02.601Z,99.90
2018-09-18T06:27:31.886Z,99.90
2018-09-18T06:30:00.442Z,99.90
2018-09-18T06:32:29.384Z,99.90
2018-09-18T06:34:58.233Z,99.90
2018-09-18T06:37:26.997Z,99.90
2018-09-18T06:39:55.441Z,99.90
2018-09-18T06:42:23.875Z,99.90
2018-09-18T06:44:53.281Z,99.90
2018-09-18T06:47:22.304Z,99.90
2018-09-18T06:49:51.263Z,99.90
2018-09-18T06:52:20.034Z,99.90
2018-09-18T06:54:48.487Z,99.90
2018-09-18T06:57:17.184Z,99.90
2018-09-18T06:59:46.007Z,99.90
2018-09-18T07:02:14.980Z,99.90
2018-09-18T07:04:43.992Z,99.90
2018-09-18T07:07:12.468Z,99.90
2018-09-18T07:09:41.233Z,99.90
2018-09-18T07:12:09.988Z,99.90
2018-09-18T07:14:38.503Z,99.90
2018-09-18T07:17:07.211Z,99.90
2018-09-18T07:19:35.802Z,99.90
2018-09-18T07:22:04.243Z,99.90
2018-09-18T07:24:33.108Z,99.90
2018-09-18T07:27:01.888Z,99.90
2018-09-18T07:29:30.525Z,99.90
2018-09-18T07:31:59.045Z,99.50
2018-09-18T07:34:27.869Z,97.10
2018-09-18T07:36:56.415Z,96.80
2018-09-18T07:39:25.558Z,96.10
2018-09-18T07:41:54.153Z,93.50
2018-09-18T07:44:22.643Z,91.50
2018-09-18T07:46:51.662Z,90.30
2018-09-18T07:49:20.080Z,88.40
2018-09-18T07:51:48.980Z,84.40
2018-09-18T07:54:17.662Z,82.40
2018-09-18T07:56:46.209Z,85.00
2018-09-18T07:59:14.738Z,83.90
2018-09-18T08:01:43.317Z,87.80
2018-09-18T08:04:11.787Z,85.50
2018-09-18T08:06:40.198Z,83.40
2018-09-18T08:09:10.478Z,81.00
2018-09-18T08:11:39.331Z,79.00
2018-09-18T08:14:08.321Z,78.90
2018-09-18T08:16:36.794Z,81.60
2018-09-18T08:19:06.049Z,85.10
2018-09-18T08:21:34.747Z,81.20
2018-09-18T08:24:03.635Z,79.80
2018-09-18T08:26:32.033Z,83.30
2018-09-18T08:29:01.066Z,86.40
2018-09-18T08:31:30.140Z,85.10
2018-09-18T08:33:58.795Z,89.50
2018-09-18T08:36:27.253Z,88.60
2018-09-18T08:38:56.071Z,89.50
2018-09-18T08:41:24.606Z,87.40
2018-09-18T08:43:53.603Z,83.40
2018-09-18T08:46:22.078Z,83.40
2018-09-18T08:48:56.526Z,85.30
2018-09-18T08:51:25.537Z,84.30
2018-09-18T08:53:54.158Z,80.70
2018-09-18T08:56:24.026Z,81.40
2018-09-18T08:58:52.724Z,87.90
2018-09-18T09:01:21.704Z,84.20
2018-09-18T09:03:50.191Z,78.50
2018-09-18T09:06:18.883Z,83.90
2018-09-18T09:08:47.390Z,83.00
2018-09-18T09:11:15.663Z,80.40
2018-09-18T09:13:44.771Z,84.50
2018-09-18T09:16:13.286Z,77.50
2018-09-18T09:18:41.968Z,73.60
2018-09-18T09:21:11.540Z,74.60
2018-09-18T09:23:40.210Z,79.90
2018-09-18T09:26:08.776Z,76.50
2018-09-18T09:28:37.656Z,76.80
2018-09-18T09:31:06.263Z,72.80
2018-09-18T09:33:35.243Z,73.30
2018-09-18T09:36:03.849Z,66.90
2018-09-18T09:38:32.517Z,69.30
2018-09-18T09:41:01.480Z,70.60
2018-09-18T09:43:30.091Z,66.90
2018-09-18T09:45:59.369Z,68.40
2018-09-18T09:48:31.983Z,70.80
2018-09-18T09:51:01.534Z,67.80
2018-09-18T09:53:30.059Z,68.80
2018-09-18T09:55:58.680Z,72.80
2018-09-18T09:58:27.355Z,67.60
2018-09-18T10:01:01.535Z,68.50
2018-09-18T10:03:30.469Z,71.60
2018-09-18T10:05:59.349Z,75.00
2018-09-18T10:08:28.090Z,70.60
2018-09-18T10:10:56.953Z,67.10
2018-09-18T10:13:25.473Z,65.90
2018-09-18T10:15:54.397Z,65.50
2018-09-18T10:18:23.282Z,67.80
2018-09-18T10:20:51.893Z,65.30
2018-09-18T10:23:21.393Z,66.80
2018-09-18T10:25:49.813Z,68.20
2018-09-18T10:28:18.213Z,64.40
2018-09-18T10:30:46.748Z,64.60
2018-09-18T10:33:15.497Z,65.10
2018-09-18T10:35:44.603Z,67.80
2018-09-18T10:38:13.132Z,68.50
2018-09-18T10:40:41.741Z,61.90
2018-09-18T10:43:10.232Z,63.30
2018-09-18T10:45:38.694Z,65.00
2018-09-18T10:48:07.118Z,63.70
2018-09-18T10:50:35.969Z,63.30
2018-09-18T10:53:04.647Z,63.60
2018-09-18T10:55:33.164Z,65.60
2018-09-18T10:58:01.951Z,64.60
2018-09-18T11:00:30.343Z,61.90
2018-09-18T11:02:58.860Z,67.90
2018-09-18T11:05:27.263Z,67.00
2018-09-18T11:07:56.107Z,63.30
2018-09-18T11:10:24.481Z,64.40
2018-09-18T11:12:53.117Z,68.50
2018-09-18T11:15:21.742Z,68.30
2018-09-18T11:17:50.078Z,68.50
2018-09-18T11:20:19.770Z,72.10
2018-09-18T11:22:48.391Z,73.80
2018-09-18T11:25:17.237Z,76.40
2018-09-18T11:27:48.521Z,73.20
2018-09-18T11:30:16.908Z,76.20
2018-09-18T11:32:45.433Z,73.30
2018-09-18T11:35:14.603Z,74.60
2018-09-18T11:37:43.103Z,77.70
2018-09-18T11:40:12.046Z,77.60
2018-09-18T11:42:40.706Z,75.60
2018-09-18T11:45:09.258Z,78.50
2018-09-18T11:47:38.074Z,76.60
2018-09-18T11:50:06.495Z,75.70
2018-09-18T11:52:35.236Z,77.60
2018-09-18T11:55:03.796Z,80.60
2018-09-18T11:57:32.358Z,81.70
2018-09-18T12:00:01.556Z,77.40
2018-09-18T12:02:30.874Z,79.90
2018-09-18T12:04:59.532Z,81.70
2018-09-18T12:07:27.992Z,81.20
2018-09-18T12:09:57.075Z,85.10
2018-09-18T12:12:25.640Z,82.90
2018-09-18T12:14:54.561Z,87.80
2018-09-18T12:17:23.506Z,84.30
2018-09-18T12:19:51.940Z,87.50
2018-09-18T12:22:21.267Z,86.00
2018-09-18T12:24:50.322Z,81.90
2018-09-18T12:27:19.734Z,89.40
2018-09-18T12:29:48.714Z,84.60
2018-09-18T12:32:17.781Z,83.90
2018-09-18T12:34:46.845Z,87.70
2018-09-18T12:37:15.324Z,87.90
2018-09-18T12:39:43.879Z,87.40
2018-09-18T12:42:12.733Z,85.40
2018-09-18T12:44:41.494Z,89.10
2018-09-18T12:47:09.995Z,85.90
2018-09-18T12:49:38.611Z,87.90
2018-09-18T12:52:06.976Z,90.00
2018-09-18T12:54:35.787Z,90.80
2018-09-18T12:57:04.728Z,86.10
2018-09-18T12:59:38.045Z,90.10
2018-09-18T13:02:06.870Z,89.90
2018-09-18T13:04:35.320Z,87.90
2018-09-18T13:07:04.426Z,90.00
2018-09-18T13:09:32.944Z,87.80
2018-09-18T13:12:01.814Z,88.50
2018-09-18T13:14:32.195Z,84.20
2018-09-18T13:17:01.781Z,86.90
2018-09-18T13:19:30.970Z,87.00
2018-09-18T13:22:02.452Z,84.00
2018-09-18T13:24:31.969Z,84.10
2018-09-18T13:27:01.641Z,83.40
2018-09-18T13:29:31.307Z,82.10
2018-09-18T13:32:00.737Z,82.10
2018-09-18T13:34:30.322Z,84.60
2018-09-18T13:36:58.773Z,82.30
2018-09-18T13:39:27.392Z,84.40
2018-09-18T13:41:55.969Z,84.60
2018-09-18T13:44:24.961Z,84.80
2018-09-18T13:46:54.632Z,90.10
2018-09-18T13:49:35.666Z,83.50
2018-09-18T13:52:04.827Z,85.60
2018-09-18T13:54:35.014Z,90.90
2018-09-18T13:57:04.218Z,90.00
2018-09-18T13:59:33.579Z,87.10
2018-09-18T14:02:02.977Z,88.30
2018-09-18T14:04:32.564Z,87.30
2018-09-18T14:07:14.265Z,89.80
2018-09-18T14:09:44.066Z,87.90
2018-09-18T14:12:12.674Z,87.00
2018-09-18T14:14:41.928Z,87.00
2018-09-18T14:17:10.452Z,89.20
2018-09-18T14:19:39.144Z,87.60
2018-09-18T14:22:07.722Z,86.40
2018-09-18T14:24:36.233Z,88.50
2018-09-18T14:27:05.334Z,86.80
2018-09-18T14:29:34.131Z,87.70
2018-09-18T14:32:03.393Z,88.70
2018-09-18T14:34:31.834Z,86.60
2018-09-18T14:37:00.717Z,84.30
2018-09-18T14:39:29.785Z,82.40
2018-09-18T14:41:58.173Z,82.40
2018-09-18T14:44:26.592Z,81.50
2018-09-18T14:46:55.080Z,83.40
2018-09-18T14:49:23.714Z,86.20
2018-09-18T14:51:53.016Z,83.30
2018-09-18T14:54:21.441Z,83.60
2018-09-18T14:56:49.929Z,81.40
2018-09-18T14:59:18.351Z,79.50
2018-09-18T15:01:46.985Z,87.60
2018-09-18T15:04:16.555Z,81.50
2018-09-18T15:06:45.336Z,85.40
2018-09-18T15:09:13.966Z,83.10
2018-09-18T15:11:42.916Z,89.50
2018-09-18T15:14:11.642Z,84.60
2018-09-18T15:16:40.543Z,86.00
2018-09-18T15:19:09.585Z,87.50
2018-09-18T15:21:38.550Z,88.20
2018-09-18T15:24:07.086Z,84.60
2018-09-18T15:26:35.834Z,84.00
2018-09-18T15:29:04.569Z,87.30
2018-09-18T15:31:33.652Z,87.10
2018-09-18T15:34:02.239Z,88.10
2018-09-18T15:36:30.704Z,87.60
2018-09-18T15:38:59.598Z,82.50
2018-09-18T15:41:28.027Z,84.70
2018-09-18T15:43:56.724Z,88.10
2018-09-18T15:46:25.159Z,87.90
2018-09-18T15:48:53.710Z,88.90
2018-09-18T15:51:22.271Z,86.10
2018-09-18T15:53:50.854Z,91.20
2018-09-18T15:56:19.626Z,87.70
2018-09-18T15:58:48.367Z,89.90
2018-09-18T16:01:17.377Z,89.50
2018-09-18T16:03:46.373Z,91.30
2018-09-18T16:06:15.058Z,93.20
2018-09-18T16:08:43.601Z,92.90
2018-09-18T16:11:12.046Z,92.40
2018-09-18T16:13:40.524Z,92.80
2018-09-18T16:16:09.191Z,93.10
2018-09-18T16:18:41.560Z,93.80
2018-09-18T16:21:09.988Z,95.00
2018-09-18T16:23:38.381Z,94.10
2018-09-18T16:26:06.987Z,95.30
2018-09-18T16:28:35.498Z,98.90
2018-09-18T16:31:04.184Z,98.90
2018-09-18T16:33:32.965Z,99.10
2018-09-18T16:36:01.362Z,99.90
2018-09-18T16:38:29.866Z,99.90
2018-09-18T16:40:58.576Z,99.90
2018-09-18T16:43:27.804Z,99.90
2018-09-18T16:45:56.248Z,99.90
2018-09-18T16:48:25.119Z,99.90
2018-09-18T16:50:53.591Z,99.90
2018-09-18T16:53:21.993Z,99.90
2018-09-18T16:55:51.342Z,99.90
2018-09-18T16:58:20.477Z,99.90
2018-09-18T17:00:49.046Z,99.90
2018-09-18T17:03:17.640Z,99.90
2018-09-18T17:05:46.101Z,99.90
2018-09-18T17:08:15.238Z,99.90
2018-09-18T17:10:44.226Z,99.90
2018-09-18T17:13:12.711Z,99.90
2018-09-18T17:15:41.245Z,99.90
2018-09-18T17:18:10.208Z,99.90
2018-09-18T17:20:39.435Z,99.90
2018-09-18T17:23:07.931Z,99.90
2018-09-18T17:25:37.236Z,99.90
2018-09-18T17:28:05.972Z,99.90
2018-09-18T17:30:34.642Z,99.90
2018-09-18T17:33:03.226Z,99.90
2018-09-18T17:35:31.721Z,99.90
2018-09-18T17:38:00.144Z,99.90
2018-09-18T17:40:29.014Z,99.90
2018-09-18T17:42:57.596Z,99.90
2018-09-18T17:45:26.129Z,99.90
2018-09-18T17:47:54.560Z,99.90
2018-09-18T17:50:23.122Z,99.90
2018-09-18T17:52:51.745Z,99.90
2018-09-18T17:55:20.551Z,99.90
2018-09-18T17:57:48.996Z,99.90
2018-09-18T18:00:17.596Z,99.90
2018-09-18T18:02:46.175Z,99.90
2018-09-18T18:05:14.624Z,99.90
2018-09-18T18:07:43.457Z,99.90
2018-09-18T18:10:12.330Z,99.90
2018-09-18T18:12:41.114Z,99.90
2018-09-18T18:15:09.810Z,99.90
2018-09-18T18:17:38.707Z,99.90
2018-09-18T18:20:07.277Z,99.90
2018-09-18T18:22:36.174Z,99.90
2018-09-18T18:25:05.109Z,99.90
2018-09-18T18:27:33.858Z,99.90
2018-09-18T18:30:02.705Z,99.90
2018-09-18T18:32:31.745Z,99.90
2018-09-18T18:35:00.161Z,99.90
2018-09-18T18:37:28.631Z,99.90
2018-09-18T18:39:57.060Z,99.90
2018-09-18T18:42:26.210Z,99.90
2018-09-18T18:44:54.847Z,99.90
2018-09-18T18:47:23.294Z,99.90
2018-09-18T18:49:52.366Z,99.90
2018-09-18T18:52:21.009Z,99.90
2018-09-18T18:54:49.689Z,99.90
2018-09-18T18:57:18.100Z,99.90
2018-09-18T18:59:46.517Z,99.90
2018-09-18T19:02:15.948Z,99.90
2018-09-18T19:04:44.417Z,99.90
2018-09-18T19:07:13.139Z,99.90
2018-09-18T19:09:41.797Z,99.90
2018-09-18T19:12:10.701Z,99.90
2018-09-18T19:14:39.735Z,99.90
2018-09-18T19:17:08.209Z,99.90
2018-09-18T19:19:36.714Z,99.90
2018-09-18T19:22:06.181Z,99.90
2018-09-18T19:24:35.196Z,99.90
2018-09-18T19:27:03.984Z,99.90
2018-09-18T19:29:34.253Z,99.90
2018-09-18T19:32:02.841Z,99.90
2018-09-18T19:34:31.458Z,99.90
2018-09-18T19:37:00.549Z,99.90
2018-09-18T19:39:29.301Z,99.90
2018-09-18T19:41:57.715Z,99.90
2018-09-18T19:44:26.601Z,99.90
2018-09-18T19:46:55.233Z,99.90
2018-09-18T19:49:24.044Z,99.90
2018-09-18T19:51:53.336Z,99.90
2018-09-18T19:54:21.783Z,99.90
2018-09-18T19:56:50.178Z,99.90
2018-09-18T19:59:18.838Z,99.90
2018-09-18T20:01:47.223Z,99.90
2018-09-18T20:04:15.682Z,99.90
2018-09-18T20:06:44.384Z,99.90
2018-09-18T20:09:13.742Z,99.90
2018-09-18T20:11:42.229Z,99.90
2018-09-18T20:14:10.687Z,99.90
2018-09-18T20:16:40.161Z,99.90
2018-09-18T20:19:08.944Z,99.90
2018-09-18T20:21:37.467Z,99.90
2018-09-18T20:24:05.890Z,99.90
2018-09-18T20:26:35.136Z,99.90
2018-09-18T20:29:05.669Z,99.90
2018-09-18T20:31:34.522Z,99.90
2018-09-18T20:34:03.000Z,99.90
2018-09-18T20:36:31.629Z,99.90
2018-09-18T20:39:00.209Z,99.90
2018-09-18T20:41:28.720Z,99.90
2018-09-18T20:43:57.333Z,99.90
2018-09-18T20:46:25.961Z,99.90
2018-09-18T20:48:55.306Z,99.90
2018-09-18T20:51:24.063Z,99.90
2018-09-18T20:53:52.961Z,99.90
2018-09-18T20:56:21.514Z,99.90
2018-09-18T20:58:49.900Z,99.90
2018-09-18T21:01:18.360Z,99.90
2018-09-18T21:03:47.387Z,99.90
2018-09-18T21:06:15.822Z,99.90
2018-09-18T21:08:44.692Z,99.90
2018-09-18T21:11:13.245Z,99.90
2018-09-18T21:13:41.644Z,99.90
2018-09-18T21:16:10.285Z,99.90
2018-09-18T21:18:38.997Z,99.90
2018-09-18T21:21:07.419Z,99.90
2018-09-18T21:23:36.059Z,99.90
2018-09-18T21:26:08.156Z,99.90
2018-09-18T21:28:37.012Z,99.90
2018-09-18T21:31:05.568Z,99.90
2018-09-18T21:33:33.997Z,99.90
2018-09-18T21:36:02.575Z,99.90
2018-09-18T21:38:31.996Z,99.90
2018-09-18T21:41:00.683Z,99.90
2018-09-18T21:43:29.745Z,99.90
2018-09-18T21:45:58.413Z,99.90
2018-09-18T21:48:26.850Z,99.90
2018-09-18T21:50:55.627Z,99.90
2018-09-18T21:53:24.734Z,99.90
2018-09-18T21:55:53.354Z,99.90
2018-09-18T21:58:21.959Z,99.90
2018-09-18T22:00:50.540Z,99.90
2018-09-18T22:03:19.852Z,99.90
2018-09-18T22:05:48.299Z,99.90
2018-09-18T22:08:16.757Z,99.90
2018-09-18T22:10:45.328Z,99.90
2018-09-18T22:13:13.775Z,99.90
2018-09-18T22:15:42.383Z,99.90
2018-09-18T22:18:10.797Z,99.90
2018-09-18T22:20:39.655Z,99.90
2018-09-18T22:23:08.144Z,99.90
2018-09-18T22:25:36.529Z,99.90
2018-09-18T22:28:04.889Z,99.90
2018-09-18T22:30:33.691Z,99.90
2018-09-18T22:33:02.125Z,99.90
2018-09-18T22:35:30.620Z,99.90
2018-09-18T22:37:59.024Z,99.90
2018-09-18T22:40:27.467Z,99.90
2018-09-18T22:42:56.039Z,99.90
2018-09-18T22:45:24.578Z,99.90
2018-09-18T22:47:53.746Z,99.90
2018-09-18T22:50:22.314Z,99.90
2018-09-18T22:52:50.886Z,99.90
2018-09-18T22:55:19.416Z,99.90
2018-09-18T22:57:48.256Z,99.90
2018-09-18T23:00:16.684Z,99.90
2018-09-18T23:02:45.445Z,99.90
2018-09-18T23:05:13.872Z,99.90
2018-09-18T23:07:42.244Z,99.90
2018-09-18T23:10:10.834Z,99.90
2018-09-18T23:12:39.641Z,99.90
2018-09-18T23:15:08.091Z,99.90
2018-09-18T23:17:36.812Z,99.90
2018-09-18T23:20:05.237Z,99.90
2018-09-18T23:22:34.201Z,99.90
2018-09-18T23:25:03.433Z,99.90
2018-09-18T23:27:32.031Z,99.90
2018-09-18T23:30:00.516Z,99.90
2018-09-18T23:32:29.379Z,99.90
2018-09-18T23:34:57.762Z,99.90
2018-09-18T23:37:26.518Z,99.90
2018-09-18T23:39:55.071Z,99.90
2018-09-18T23:42:23.707Z,99.90
2018-09-18T23:44:52.594Z,99.90
2018-09-18T23:47:21.048Z,99.90
2018-09-18T23:49:49.425Z,99.90
2018-09-18T23:52:17.966Z,99.90
2018-09-18T23:54:46.437Z,99.90
2018-09-18T23:57:15.532Z,99.90
2018-09-18T23:59:43.930Z,99.90
